Time;durP1;ratioP1;P1;durP2;ratioP2;P2;SDS_P1;SDS_P2;PMS_P1;PMS_P2;Temp;Humidity;BMP_temperature;BMP_pressure;BME280_temperature;BME280_humidity;BME280_pressure;Samples;Min_cycle;Max_cycle;Signal;HPM_P1;HPM_P2
2021/10/17 06:00:31;;;;;;;80.05;40.42;;;9.80;99.90;;;;;;6159382;22;20044;-81
2021/10/17 06:02:57;;;;;;;84.28;40.72;;;9.80;99.90;;;;;;6273515;22;20473;-79
2021/10/17 06:05:24;;;;;;;86.03;41.35;;;9.90;99.90;;;;;;6272936;22;20162;-80
2021/10/17 06:07:51;;;;;;;65.32;35.78;;;9.90;99.90;;;;;;6274148;22;20015;-82
2021/10/17 06:10:19;;;;;;;92.28;42.28;;;9.90;99.90;;;;;;6273718;22;20024;-82
2021/10/17 06:12:45;;;;;;;65.13;33.85;;;10.00;99.90;;;;;;6274609;22;20031;-81
2021/10/17 06:15:12;;;;;;;82.22;41.33;;;10.00;99.90;;;;;;6273324;22;20027;-82
2021/10/17 06:17:39;;;;;;;53.42;32.75;;;10.00;99.90;;;;;;6274670;22;20015;-81
2021/10/17 06:20:07;;;;;;;81.63;40.00;;;10.00;99.90;;;;;;6273525;22;20019;-81
2021/10/17 06:22:34;;;;;;;51.83;32.05;;;10.00;99.90;;;;;;6247480;22;20015;-81
2021/10/17 06:25:01;;;;;;;79.18;39.28;;;10.00;99.90;;;;;;6274506;22;20024;-81
2021/10/17 06:27:28;;;;;;;57.80;33.42;;;10.00;99.90;;;;;;6273283;22;20335;-81
2021/10/17 06:29:55;;;;;;;77.10;38.90;;;10.00;99.90;;;;;;6274372;22;20022;-81
2021/10/17 06:32:22;;;;;;;57.97;34.38;;;10.00;99.90;;;;;;6273296;22;20031;-81
2021/10/17 06:34:49;;;;;;;93.70;39.70;;;10.00;99.90;;;;;;6273717;22;20081;-82
2021/10/17 06:37:16;;;;;;;53.05;32.83;;;10.10;99.90;;;;;;6272280;22;20074;-81
2021/10/17 06:39:42;;;;;;;78.43;40.20;;;10.10;99.90;;;;;;6274279;22;20400;-82
2021/10/17 06:42:11;;;;;;;52.95;32.35;;;10.10;99.90;;;;;;6273532;22;20020;-82
2021/10/17 06:44:37;;;;;;;56.90;32.67;;;10.10;99.90;;;;;;6274839;22;20046;-81
2021/10/17 06:47:05;;;;;;;85.68;40.15;;;10.10;99.90;;;;;;6273737;22;20549;-79
2021/10/17 06:49:31;;;;;;;56.08;32.45;;;10.10;99.90;;;;;;6273836;22;20444;-81
2021/10/17 06:52:00;;;;;;;56.00;33.90;;;10.10;99.90;;;;;;6273533;22;20016;-81
2021/10/17 06:54:27;;;;;;;84.97;40.92;;;10.10;99.90;;;;;;6274166;22;20023;-81
2021/10/17 06:56:54;;;;;;;88.07;41.03;;;10.10;99.90;;;;;;6273819;22;20062;-81
2021/10/17 06:59:20;;;;;;;88.88;42.15;;;10.20;99.90;;;;;;6273063;22;20082;-81
2021/10/17 07:01:47;;;;;;;83.82;40.60;;;10.20;99.90;;;;;;6273429;22;20054;-81
2021/10/17 07:04:14;;;;;;;93.65;42.85;;;10.20;99.90;;;;;;6272833;22;20024;-81
2021/10/17 07:06:42;;;;;;;58.45;33.20;;;10.20;99.90;;;;;;6271354;22;20031;-81
2021/10/17 07:09:09;;;;;;;75.82;37.35;;;10.20;99.90;;;;;;6272500;22;20024;-82
2021/10/17 07:11:36;;;;;;;76.53;38.45;;;10.20;99.90;;;;;;6274419;22;20483;-81
2021/10/17 07:14:02;;;;;;;56.92;33.33;;;10.20;99.90;;;;;;6246950;22;20046;-81
2021/10/17 07:16:29;;;;;;;88.00;39.25;;;10.20;99.90;;;;;;6273900;22;20023;-82
2021/10/17 07:18:56;;;;;;;86.45;39.90;;;10.20;99.90;;;;;;6273564;22;20019;-80
2021/10/17 07:21:23;;;;;;;81.10;38.67;;;10.20;99.90;;;;;;6272635;22;20027;-81
2021/10/17 07:23:50;;;;;;;76.32;38.90;;;10.30;99.90;;;;;;6274610;22;20016;-81
2021/10/17 07:26:17;;;;;;;54.42;33.15;;;10.30;99.90;;;;;;6272287;22;20073;-80
2021/10/17 07:28:44;;;;;;;88.40;39.95;;;10.30;99.90;;;;;;6273598;22;20404;-80
2021/10/17 07:31:11;;;;;;;53.90;33.72;;;10.30;99.90;;;;;;6271521;22;20081;-80
2021/10/17 07:33:38;;;;;;;86.63;38.83;;;10.40;99.90;;;;;;6272593;22;20041;-81
2021/10/17 07:36:05;;;;;;;54.00;33.00;;;10.40;99.90;;;;;;6272152;22;20076;-79
2021/10/17 07:38:32;;;;;;;85.47;41.10;;;10.50;99.90;;;;;;6272621;22;20529;-81
2021/10/17 07:40:59;;;;;;;56.28;31.58;;;10.50;99.90;;;;;;6272720;22;20030;-80
2021/10/17 07:43:27;;;;;;;79.07;39.90;;;10.60;99.90;;;;;;6267811;22;20024;-80
2021/10/17 07:45:54;;;;;;;47.83;30.88;;;10.60;99.90;;;;;;6267056;22;20023;-81
2021/10/17 07:48:21;;;;;;;57.97;33.58;;;10.70;99.90;;;;;;6267587;22;20024;-81
2021/10/17 07:50:47;;;;;;;62.85;34.58;;;10.70;99.90;;;;;;6267234;22;20073;-81
2021/10/17 07:53:14;;;;;;;78.35;39.40;;;10.80;99.90;;;;;;6266466;22;20069;-82
2021/10/17 07:55:42;;;;;;;57.10;33.67;;;10.80;99.90;;;;;;6267382;22;20020;-80
2021/10/17 07:58:09;;;;;;;75.25;40.13;;;10.80;99.90;;;;;;6240219;22;20032;-82
2021/10/17 08:00:59;;;;;;;54.33;32.72;;;10.90;99.90;;;;;;6267811;22;20022;-80
2021/10/17 08:03:27;;;;;;;58.65;33.90;;;10.90;99.90;;;;;;6266902;22;20114;-80
2021/10/17 08:05:55;;;;;;;74.05;41.65;;;11.00;99.90;;;;;;6266564;22;20026;-81
2021/10/17 08:08:21;;;;;;;48.53;32.90;;;11.10;99.90;;;;;;6267732;22;20089;-81
2021/10/17 08:10:48;;;;;;;48.00;32.42;;;11.20;99.90;;;;;;6267909;22;20027;-81
2021/10/17 08:13:15;;;;;;;48.10;33.83;;;11.30;99.90;;;;;;6267046;22;20019;-80
2021/10/17 08:15:43;;;;;;;53.65;34.38;;;11.40;99.90;;;;;;6267390;22;20015;-80
2021/10/17 08:18:13;;;;;;;44.60;33.15;;;11.50;99.90;;;;;;6266844;22;20027;-81
2021/10/17 08:20:40;;;;;;;43.72;30.95;;;11.60;99.90;;;;;;6267057;22;20473;-81
2021/10/17 08:23:06;;;;;;;38.95;30.58;;;11.70;99.90;;;;;;6267304;22;20555;-82
2021/10/17 08:25:35;;;;;;;43.80;30.75;;;11.80;99.90;;;;;;6251967;22;20023;-82
2021/10/17 08:28:05;;;;;;;38.83;30.80;;;11.90;99.90;;;;;;6241386;22;20020;-88
2021/10/17 08:30:32;;;;;;;36.28;29.23;;;12.00;99.90;;;;;;6239819;22;20020;-82
2021/10/17 08:32:59;;;;;;;41.20;29.42;;;12.10;99.90;;;;;;6267765;22;20027;-82
2021/10/17 08:35:26;;;;;;;36.75;28.33;;;12.10;99.90;;;;;;6266477;22;20047;-81
2021/10/17 08:37:53;;;;;;;37.08;28.45;;;12.20;99.90;;;;;;6267639;22;20493;-81
2021/10/17 08:40:20;;;;;;;35.70;27.02;;;12.30;99.90;;;;;;6265325;22;20073;-81
2021/10/17 08:42:47;;;;;;;32.45;27.05;;;12.50;99.90;;;;;;6267231;22;20552;-81
2021/10/17 08:45:14;;;;;;;29.98;26.63;;;12.60;99.90;;;;;;6267049;22;20035;-81
2021/10/17 08:47:42;;;;;;;32.80;26.60;;;12.80;99.90;;;;;;6266673;22;20465;-80
2021/10/17 08:50:09;;;;;;;33.40;25.83;;;12.90;99.90;;;;;;6265069;22;20031;-80
2021/10/17 08:52:36;;;;;;;30.40;25.60;;;13.00;99.90;;;;;;6267256;22;20024;-81
2021/10/17 08:55:06;;;;;;;28.73;25.52;;;13.10;99.90;;;;;;6267260;22;20020;-81
2021/10/17 08:57:33;;;;;;;30.63;24.50;;;13.20;99.90;;;;;;6266627;22;20485;-82
2021/10/17 09:00:00;;;;;;;26.92;22.88;;;13.30;99.90;;;;;;6267403;22;20073;-82
2021/10/17 09:02:27;;;;;;;26.80;23.03;;;13.30;99.90;;;;;;6238771;22;20053;-82
2021/10/17 09:05:07;;;;;;;26.00;23.27;;;13.40;99.90;;;;;;6266915;22;20362;-82
2021/10/17 09:07:35;;;;;;;26.65;21.35;;;13.50;99.90;;;;;;6267050;22;20020;-81
2021/10/17 09:10:09;;;;;;;24.83;20.92;;;13.70;99.90;;;;;;6266432;22;20405;-83
2021/10/17 09:12:37;;;;;;;23.08;20.85;;;13.80;99.90;;;;;;6238793;22;20015;-82
2021/10/17 09:15:30;;;;;;;23.10;20.73;;;13.90;99.90;;;;;;6267759;22;20486;-82
2021/10/17 09:18:03;;;;;;;22.65;19.90;;;14.10;99.90;;;;;;6265404;22;20048;-83
2021/10/17 09:20:31;;;;;;;21.52;19.40;;;14.20;99.90;;;;;;6264741;22;20020;-82
2021/10/17 09:23:05;;;;;;;21.73;19.42;;;14.30;99.90;;;;;;6266761;22;20015;-82
2021/10/17 09:25:35;;;;;;;20.85;18.85;;;14.40;99.90;;;;;;6266891;22;20018;-83
2021/10/17 09:28:19;;;;;;;18.58;16.77;;;14.50;99.90;;;;;;6267741;22;20020;-83
2021/10/17 09:30:59;;;;;;;19.45;17.45;;;14.60;99.90;;;;;;6240215;22;20093;-82
2021/10/17 09:33:49;;;;;;;18.33;16.50;;;14.70;99.90;;;;;;6268186;22;20028;-82
2021/10/17 09:36:31;;;;;;;17.20;15.48;;;14.80;99.90;;;;;;6268482;22;20074;-82
2021/10/17 09:41:34;;;;;;;17.55;15.68;;;14.80;99.90;;;;;;6269214;22;20016;-83
2021/10/17 09:44:03;;;;;;;18.60;16.08;;;14.70;99.90;;;;;;6268638;22;20351;-84
2021/10/17 09:46:31;;;;;;;18.52;16.40;;;14.80;99.90;;;;;;6268509;22;20035;-83
2021/10/17 09:48:58;;;;;;;17.77;15.55;;;14.90;99.90;;;;;;6267987;22;20023;-83
2021/10/17 09:51:29;;;;;;;18.05;16.17;;;15.00;99.90;;;;;;6268114;22;20023;-82
2021/10/17 09:54:00;;;;;;;17.23;15.55;;;15.10;99.90;;;;;;6269319;22;20026;-83
2021/10/17 09:56:34;;;;;;;17.77;15.68;;;15.20;99.90;;;;;;6268575;22;20015;-83
2021/10/17 09:59:11;;;;;;;17.70;15.90;;;15.30;99.90;;;;;;6268201;22;20020;-84
2021/10/17 10:01:41;;;;;;;17.17;15.48;;;15.40;99.90;;;;;;6267521;22;20027;-82
2021/10/17 10:04:11;;;;;;;16.98;15.23;;;15.50;99.90;;;;;;6241393;22;20039;-83
2021/10/17 10:06:38;;;;;;;14.82;13.10;;;15.60;99.90;;;;;;6267693;22;20023;-84
2021/10/17 10:09:11;;;;;;;16.95;13.48;;;15.70;99.90;;;;;;6241259;22;20019;-83
2021/10/17 10:11:38;;;;;;;12.55;11.35;;;15.80;99.90;;;;;;6267935;22;20462;-83
2021/10/17 10:14:09;;;;;;;15.90;12.40;;;15.90;99.90;;;;;;6265726;22;20016;-83
2021/10/17 10:16:36;;;;;;;13.25;11.95;;;16.00;99.90;;;;;;6268081;22;20081;-82
2021/10/17 10:19:09;;;;;;;13.02;11.55;;;16.10;99.90;;;;;;6267868;22;20016;-85
2021/10/17 10:21:38;;;;;;;12.52;11.32;;;16.20;99.90;;;;;;6267755;22;20022;-83
2021/10/17 10:24:09;;;;;;;13.15;11.18;;;16.20;99.90;;;;;;6267717;22;20020;-81
2021/10/17 10:26:37;;;;;;;12.93;11.50;;;16.30;99.90;;;;;;6268245;22;20018;-83
2021/10/17 10:29:09;;;;;;;11.88;10.63;;;16.40;99.90;;;;;;6258568;22;20028;-83
2021/10/17 10:31:47;;;;;;;12.23;11.02;;;16.40;99.90;;;;;;6266881;22;20008;-84
2021/10/17 10:34:23;;;;;;;12.32;11.05;;;16.60;99.90;;;;;;6265951;22;20031;-82
2021/10/17 10:36:55;;;;;;;11.88;9.25;;;16.60;99.90;;;;;;6266952;22;20188;-84
2021/10/17 10:39:33;;;;;;;10.05;9.02;;;16.70;99.90;;;;;;6240383;22;20027;-86
2021/10/17 10:42:13;;;;;;;10.90;9.73;;;16.70;99.90;;;;;;6267404;22;20763;-84
2021/10/17 10:44:40;;;;;;;11.15;9.13;;;16.90;99.90;;;;;;6240989;22;20019;-85
2021/10/17 10:47:26;;;;;;;11.15;8.98;;;16.90;99.90;;;;;;6241688;22;20019;-86
2021/10/17 10:49:58;;;;;;;11.73;9.57;;;16.90;99.90;;;;;;6268165;22;20020;-84
2021/10/17 10:52:28;;;;;;;10.00;8.32;;;16.90;99.90;;;;;;6240212;22;20019;-83
2021/10/17 10:54:56;;;;;;;10.35;9.25;;;16.90;99.90;;;;;;6267724;22;20020;-84
2021/10/17 10:57:31;;;;;;;10.40;8.50;;;16.90;99.90;;;;;;6268388;22;20019;-85
2021/10/17 11:00:12;;;;;;;10.00;8.77;;;16.90;99.90;;;;;;6269584;22;20020;-86
2021/10/17 11:03:00;;;;;;;8.63;7.78;;;17.00;99.90;;;;;;6235505;23;20035;-84
2021/10/17 11:05:28;;;;;;;8.65;6.85;;;17.10;99.90;;;;;;6259821;22;20082;-84
2021/10/17 11:08:11;;;;;;;8.40;7.10;;;17.20;99.90;;;;;;6262318;22;20015;-84
2021/10/17 11:10:39;;;;;;;9.02;6.65;;;17.20;99.90;;;;;;6236920;23;20012;-85
2021/10/17 11:13:25;;;;;;;8.27;6.33;;;17.30;99.90;;;;;;6236715;22;20471;-87
2021/10/17 11:15:52;;;;;;;9.70;6.68;;;17.40;99.90;;;;;;6261299;22;20031;-86
2021/10/17 11:18:18;;;;;;;7.18;5.53;;;17.50;99.90;;;;;;6238538;22;20520;-86
2021/10/17 11:20:49;;;;;;;5.80;5.13;;;17.60;99.90;;;;;;6236904;23;20393;-85
2021/10/17 11:23:18;;;;;;;7.00;4.70;;;17.60;99.90;;;;;;6238176;22;20361;-85
2021/10/17 11:25:57;;;;;;;9.15;6.20;;;17.70;99.90;;;;;;6239373;22;20031;-87
2021/10/17 11:28:26;;;;;;;5.47;4.88;;;17.70;99.90;;;;;;6262729;22;20046;-86
2021/10/17 11:31:14;;;;;;;5.72;4.43;;;17.70;99.90;;;;;;6263263;22;20020;-88
2021/10/17 11:33:43;;;;;;;4.93;4.00;;;17.80;99.90;;;;;;6237097;22;20493;-85
2021/10/17 11:36:13;;;;;;;6.78;4.70;;;17.80;99.90;;;;;;6259668;22;20474;-83
2021/10/17 11:38:42;;;;;;;6.47;5.20;;;17.90;99.90;;;;;;6239129;22;20070;-84
2021/10/17 11:41:10;;;;;;;;;;;18.00;99.90;;;;;;6262611;22;20074;-86
2021/10/17 11:43:48;;;;;;;6.32;4.20;;;18.00;99.90;;;;;;6238438;23;19915;-85
2021/10/17 11:46:17;;;;;;;;;;;18.00;99.90;;;;;;6239258;22;20021;-85
2021/10/17 11:48:45;;;;;;;6.15;4.55;;;18.00;99.90;;;;;;6237448;23;19926;-85
2021/10/17 11:51:15;;;;;;;5.63;4.15;;;18.00;99.90;;;;;;6236593;22;20106;-85
2021/10/17 11:53:42;;;;;;;6.78;4.20;;;18.10;99.90;;;;;;6238338;22;20401;-84
2021/10/17 11:56:11;;;;;;;7.25;4.85;;;18.10;99.90;;;;;;6235200;22;20428;-86
2021/10/17 11:58:39;;;;;;;;;;;18.20;99.90;;;;;;6238942;22;20398;-85
2021/10/17 12:01:06;;;;;;;7.05;4.82;;;18.20;99.90;;;;;;6236479;22;20638;-85
2021/10/17 12:03:33;;;;;;;5.75;4.68;;;18.30;99.90;;;;;;6231501;22;20098;-82
2021/10/17 12:06:02;;;;;;;6.00;4.22;;;18.30;99.90;;;;;;6260684;22;20024;-84
2021/10/17 12:08:34;;;;;;;6.28;4.80;;;18.30;99.90;;;;;;6259237;22;20103;-83
2021/10/17 12:11:11;;;;;;;7.32;4.90;;;18.40;99.90;;;;;;6234895;22;20221;-84
2021/10/17 12:13:49;;;;;;;5.75;4.80;;;18.40;99.90;;;;;;6235762;22;20042;-83
2021/10/17 12:16:22;;;;;;;6.72;4.35;;;18.40;99.90;;;;;;6235337;22;20498;-83
2021/10/17 12:18:50;;;;;;;7.70;4.55;;;18.40;99.90;;;;;;6235943;22;20028;-85
2021/10/17 12:21:24;;;;;;;5.90;4.45;;;18.50;99.90;;;;;;6235110;22;20023;-85
2021/10/17 12:23:52;;;;;;;5.47;4.03;;;18.50;99.90;;;;;;6235938;22;20019;-83
2021/10/17 12:26:25;;;;;;;8.27;4.78;;;18.50;99.90;;;;;;6234691;22;20054;-86
2021/10/17 12:29:05;;;;;;;5.45;4.03;;;18.50;99.90;;;;;;6236344;22;20368;-84
2021/10/17 12:31:34;;;;;;;6.03;4.32;;;18.40;99.90;;;;;;6235148;22;20066;-83
2021/10/17 12:34:05;;;;;;;7.82;4.30;;;18.40;99.90;;;;;;6235669;22;20023;-84
2021/10/17 12:36:33;;;;;;;5.68;4.13;;;18.30;99.90;;;;;;6235531;22;20082;-83
2021/10/17 12:39:04;;;;;;;5.50;4.57;;;18.30;99.90;;;;;;6235798;22;20371;-84
2021/10/17 12:41:32;;;;;;;5.32;4.78;;;18.30;99.90;;;;;;6234743;22;20020;-83
2021/10/17 12:44:06;;;;;;;5.30;3.90;;;18.30;99.90;;;;;;6248627;22;20020;-84
2021/10/17 12:46:33;;;;;;;3.80;3.35;;;18.40;99.90;;;;;;6224703;23;20020;-83
2021/10/17 12:49:15;;;;;;;5.63;3.47;;;18.40;99.90;;;;;;6235569;22;20367;-84
2021/10/17 12:51:53;;;;;;;5.57;4.00;;;18.40;99.90;;;;;;6236208;22;20035;-85
2021/10/17 12:54:23;;;;;;;3.60;3.30;;;18.40;99.90;;;;;;6234368;22;20474;-85
2021/10/17 12:56:52;;;;;;;5.43;4.03;;;18.40;99.90;;;;;;6234510;23;20020;-86
2021/10/17 12:59:22;;;;;;;4.97;3.72;;;18.40;99.90;;;;;;6235697;22;20086;-84
2021/10/17 13:02:12;;;;;;;3.60;3.30;;;18.40;99.90;;;;;;6233715;22;20028;-83
2021/10/17 13:04:39;;;;;;;4.70;3.33;;;18.30;99.90;;;;;;6234822;23;20463;-87
2021/10/17 13:07:07;;;;;;;5.03;3.25;;;18.30;99.90;;;;;;6234621;22;20027;-84
2021/10/17 13:09:51;;;;;;;3.90;3.38;;;18.20;99.90;;;;;;6236826;23;20016;-84
2021/10/17 13:12:29;;;;;;;3.92;2.90;;;18.20;99.90;;;;;;6238289;22;20012;-84
2021/10/17 13:15:06;;;;;;;4.95;3.55;;;18.20;99.90;;;;;;6237303;23;20493;-87
2021/10/17 13:17:35;;;;;;;4.43;3.17;;;18.20;99.90;;;;;;6235826;22;20044;-85
2021/10/17 13:20:08;;;;;;;3.88;2.88;;;18.10;99.90;;;;;;6262337;22;20473;-85
2021/10/17 13:22:37;;;;;;;4.53;2.85;;;18.10;99.90;;;;;;6235810;23;20052;-85
2021/10/17 13:25:05;;;;;;;11.93;4.07;;;18.10;99.90;;;;;;6261584;22;20020;-86
2021/10/17 13:27:41;;;;;;;5.10;3.50;;;18.10;99.90;;;;;;6237093;23;20044;-86
2021/10/17 13:30:09;;;;;;;5.93;3.45;;;18.10;99.90;;;;;;6238963;22;20397;-86
2021/10/17 13:32:37;;;;;;;4.85;3.60;;;18.20;99.90;;;;;;6263544;22;20489;-86
2021/10/17 13:35:08;;;;;;;6.07;3.45;;;18.20;99.90;;;;;;6239805;22;20070;-87
2021/10/17 13:37:36;;;;;;;4.63;3.00;;;18.20;99.90;;;;;;6262172;22;20027;-83
2021/10/17 13:40:04;;;;;;;6.93;3.30;;;18.30;99.90;;;;;;6239591;22;20019;-86
2021/10/17 13:42:31;;;;;;;3.33;2.90;;;18.30;99.90;;;;;;6237120;23;20023;-88
2021/10/17 13:44:59;;;;;;;4.28;3.05;;;18.40;99.90;;;;;;6263811;22;20109;-87
2021/10/17 13:47:26;;;;;;;5.93;3.15;;;18.40;99.90;;;;;;6239190;22;20028;-86
2021/10/17 13:49:53;;;;;;;3.55;2.95;;;18.50;99.90;;;;;;6240762;22;20020;-86
2021/10/17 13:52:20;;;;;;;5.03;2.70;;;18.60;99.90;;;;;;6239771;22;20082;-85
2021/10/17 13:54:46;;;;;;;3.88;2.80;;;18.60;99.90;;;;;;6263607;22;20016;-86
2021/10/17 13:57:14;;;;;;;3.17;2.88;;;18.60;99.90;;;;;;6239831;22;20024;-88
2021/10/17 13:59:41;;;;;;;4.20;2.75;;;18.70;99.90;;;;;;6263357;22;20035;-84
2021/10/17 14:02:08;;;;;;;3.35;2.50;;;18.70;99.90;;;;;;6258014;22;20065;-85
2021/10/17 14:04:35;;;;;;;3.90;2.40;;;18.80;99.90;;;;;;6270940;22;20561;-86
2021/10/17 14:07:02;;;;;;;4.60;2.60;;;18.80;99.90;;;;;;6272132;22;20050;-87
2021/10/17 14:09:30;;;;;;;4.93;2.70;;;18.90;99.90;;;;;;6265319;22;20019;-92
2021/10/17 14:12:08;;;;;;;13.50;3.33;;;18.90;99.90;;;;;;6209834;22;20023;-94
2021/10/17 14:14:35;;;;;;;11.65;3.10;;;18.90;99.90;;;;;;6272917;22;20087;-91
2021/10/17 14:17:03;;;;;;;4.85;2.90;;;19.00;99.90;;;;;;6247503;22;20099;-94
2021/10/17 14:19:30;;;;;;;9.70;3.38;;;19.00;99.90;;;;;;6206434;22;20027;-86
2021/10/17 14:21:57;;;;;;;4.63;2.20;;;19.10;99.90;;;;;;6270929;22;20019;-96
2021/10/17 14:24:24;;;;;;;4.03;2.17;;;19.20;99.90;;;;;;6250227;22;20026;-95
2021/10/17 14:26:53;;;;;;;2.88;2.22;;;19.20;99.90;;;;;;6274065;22;20016;-91
2021/10/17 14:29:22;;;;;;;3.35;2.17;;;19.40;99.90;;;;;;6275023;22;20023;-95
2021/10/17 14:31:51;;;;;;;4.22;2.00;;;19.40;99.90;;;;;;6245766;22;20012;-95
2021/10/17 14:34:18;;;;;;;3.53;2.42;;;19.50;99.90;;;;;;6234846;22;20020;-90
2021/10/17 14:36:45;;;;;;;4.43;2.15;;;19.50;99.90;;;;;;6275990;22;20038;-93
2021/10/17 14:39:12;;;;;;;4.03;2.20;;;19.60;99.90;;;;;;6247392;22;20015;-94
2021/10/17 14:41:40;;;;;;;3.03;1.95;;;19.60;99.90;;;;;;6244937;22;20016;-89
2021/10/17 14:44:09;;;;;;;4.25;2.33;;;19.60;99.90;;;;;;6270409;22;20015;-87
2021/10/17 14:46:36;;;;;;;;;;;19.50;99.90;;;;;;6275743;22;20026;-85
2021/10/17 14:49:05;;;;;;;2.30;1.95;;;19.50;99.90;;;;;;6247685;22;19921;-93
2021/10/17 14:51:33;;;;;;;4.00;2.00;;;19.50;99.90;;;;;;6270730;22;20450;-89
2021/10/17 14:54:01;;;;;;;3.10;2.00;;;19.50;99.90;;;;;;6275641;22;20016;-93
2021/10/17 14:56:28;;;;;;;2.80;1.70;;;19.50;99.90;;;;;;6272142;22;20028;-88
2021/10/17 14:58:55;;;;;;;4.05;2.40;;;19.60;99.90;;;;;;6244368;22;20022;-85
2021/10/17 15:01:23;;;;;;;3.22;1.80;;;19.60;99.90;;;;;;6268607;22;20023;-85
2021/10/17 15:03:50;;;;;;;2.80;2.25;;;19.60;99.90;;;;;;6238358;22;20357;-88
2021/10/17 15:06:17;;;;;;;3.75;2.10;;;19.50;99.90;;;;;;6242657;22;20030;-86
2021/10/17 15:08:44;;;;;;;2.65;2.08;;;19.50;99.90;;;;;;6270730;22;20077;-87
2021/10/17 15:11:12;;;;;;;2.92;2.17;;;19.50;99.90;;;;;;6242954;22;20023;-88
2021/10/17 15:13:39;;;;;;;6.13;2.20;;;19.60;99.90;;;;;;6242867;22;20012;-86
2021/10/17 15:16:06;;;;;;;2.85;2.10;;;19.60;99.90;;;;;;6245321;22;20015;-88
2021/10/17 15:18:33;;;;;;;3.60;2.13;;;19.60;99.90;;;;;;6272596;22;20066;-86
2021/10/17 15:21:00;;;;;;;4.47;2.20;;;19.50;99.90;;;;;;6273016;22;20508;-86
2021/10/17 15:23:27;;;;;;;3.60;2.40;;;19.40;99.90;;;;;;6272521;22;20069;-87
2021/10/17 15:25:54;;;;;;;4.38;2.15;;;19.40;99.90;;;;;;6273458;22;20019;-86
2021/10/17 15:28:21;;;;;;;2.95;2.13;;;19.30;99.90;;;;;;6271010;22;20077;-86
2021/10/17 15:30:50;;;;;;;3.58;2.20;;;19.10;99.90;;;;;;6266112;22;20016;-85
2021/10/17 15:33:19;;;;;;;2.78;2.28;;;19.10;99.90;;;;;;6270981;22;20028;-85
2021/10/17 15:35:46;;;;;;;;;;;19.00;99.90;;;;;;6271198;22;20126;-86
2021/10/17 15:38:13;;;;;;;4.13;2.30;;;18.90;99.90;;;;;;6271895;22;20258;-88
2021/10/17 15:40:42;;;;;;;3.53;2.45;;;18.90;99.90;;;;;;6245707;22;20035;-90
2021/10/17 15:43:09;;;;;;;5.00;2.50;;;18.90;99.90;;;;;;6270508;22;20020;-86
2021/10/17 15:45:37;;;;;;;2.67;2.25;;;18.90;99.90;;;;;;6271892;22;20073;-85
2021/10/17 15:48:05;;;;;;;3.97;2.65;;;18.80;99.90;;;;;;6272154;22;20397;-84
2021/10/17 15:50:36;;;;;;;4.03;2.45;;;18.80;99.90;;;;;;6272296;22;20016;-87
2021/10/17 15:53:04;;;;;;;5.20;2.85;;;18.80;99.90;;;;;;6271563;22;20028;-84
2021/10/17 15:55:31;;;;;;;4.13;2.33;;;18.90;99.90;;;;;;6228642;22;20466;-85
2021/10/17 15:57:58;;;;;;;2.67;2.40;;;18.80;99.90;;;;;;6269186;22;20408;-84
2021/10/17 16:00:25;;;;;;;3.33;2.60;;;18.70;99.90;;;;;;6269855;22;20553;-87
2021/10/17 16:02:53;;;;;;;4.55;2.60;;;18.70;99.90;;;;;;6241536;23;20478;-87
2021/10/17 16:05:20;;;;;;;4.22;2.97;;;18.60;99.90;;;;;;6242628;23;20017;-88
2021/10/17 16:07:47;;;;;;;4.03;2.72;;;18.50;99.90;;;;;;6240569;23;20526;-88
2021/10/17 16:10:14;;;;;;;5.50;3.15;;;18.40;99.90;;;;;;6214914;23;20024;-88
2021/10/17 16:12:41;;;;;;;5.45;3.22;;;18.40;99.90;;;;;;6215816;23;20069;-87
2021/10/17 16:15:08;;;;;;;5.78;3.00;;;18.30;99.90;;;;;;6239839;23;20070;-84
2021/10/17 16:17:35;;;;;;;3.90;3.50;;;18.20;99.90;;;;;;6240948;23;20414;-87
2021/10/17 16:20:06;;;;;;;5.60;3.50;;;18.20;99.90;;;;;;6241318;23;20012;-88
2021/10/17 16:22:34;;;;;;;5.55;3.60;;;18.10;99.90;;;;;;6242921;23;20012;-86
2021/10/17 16:25:04;;;;;;;6.22;3.70;;;18.10;99.90;;;;;;6241276;23;20080;-86
2021/10/17 16:27:34;;;;;;;5.43;3.88;;;18.10;99.90;;;;;;6241311;23;20401;-87
2021/10/17 16:30:03;;;;;;;8.02;4.30;;;18.00;99.90;;;;;;6240682;23;20012;-85
2021/10/17 16:32:34;;;;;;;5.63;4.43;;;18.00;99.90;;;;;;6238911;23;20032;-84
2021/10/17 16:35:03;;;;;;;8.68;5.45;;;17.90;99.90;;;;;;6212381;23;20082;-85
2021/10/17 16:37:31;;;;;;;8.73;7.25;;;17.90;99.90;;;;;;6238148;23;20081;-85
2021/10/17 16:39:58;;;;;;;6.38;4.70;;;17.80;99.90;;;;;;6212386;23;20544;-83
2021/10/17 16:42:25;;;;;;;7.72;4.55;;;17.70;99.90;;;;;;6237950;23;20032;-84
2021/10/17 16:44:52;;;;;;;6.03;4.63;;;17.70;99.90;;;;;;6212887;23;20406;-84
2021/10/17 16:47:19;;;;;;;7.13;5.18;;;17.60;99.90;;;;;;6238463;23;20020;-84
2021/10/17 16:49:46;;;;;;;8.20;5.47;;;17.60;99.90;;;;;;6239219;23;20074;-84
2021/10/17 16:52:12;;;;;;;7.97;5.10;;;17.50;99.90;;;;;;6239889;23;20070;-86
2021/10/17 16:55:04;;;;;;;7.05;5.72;;;17.50;99.90;;;;;;6238563;23;20026;-84
2021/10/17 16:57:31;;;;;;;9.20;6.47;;;17.40;99.90;;;;;;6239047;23;20066;-86
2021/10/17 16:59:58;;;;;;;10.00;7.70;;;17.30;99.90;;;;;;6238152;23;20021;-84
2021/10/17 17:02:25;;;;;;;10.48;8.60;;;17.20;99.90;;;;;;6227237;22;20016;-84
2021/10/17 17:04:52;;;;;;;11.77;8.07;;;17.20;99.90;;;;;;6261181;22;20035;-86
2021/10/17 17:07:19;;;;;;;11.02;8.57;;;17.10;99.90;;;;;;6234385;22;20039;-86
2021/10/17 17:09:46;;;;;;;10.77;9.13;;;17.10;99.90;;;;;;6236169;23;20066;-88
2021/10/17 17:12:13;;;;;;;11.50;8.82;;;17.00;99.90;;;;;;6237004;22;20462;-84
2021/10/17 17:14:39;;;;;;;12.80;11.40;;;16.90;99.90;;;;;;6237221;22;20401;-86
2021/10/17 17:17:06;;;;;;;14.98;13.07;;;16.90;99.90;;;;;;6236376;22;20024;-86
2021/10/17 17:19:34;;;;;;;21.55;16.42;;;16.80;99.90;;;;;;6236576;22;20569;-85
2021/10/17 17:22:10;;;;;;;16.05;14.35;;;16.80;99.90;;;;;;6236276;22;20362;-85
2021/10/17 17:24:42;;;;;;;18.80;14.13;;;16.70;99.90;;;;;;6237829;22;20016;-86
2021/10/17 17:27:09;;;;;;;12.70;10.93;;;16.60;99.90;;;;;;6232800;22;20026;-85
2021/10/17 17:29:44;;;;;;;14.18;12.43;;;16.60;99.90;;;;;;6236684;22;20059;-84
2021/10/17 17:32:12;;;;;;;16.23;13.30;;;16.50;99.90;;;;;;6236851;22;20024;-82
2021/10/17 17:34:39;;;;;;;14.27;11.68;;;16.50;99.90;;;;;;6234280;22;20501;-83
2021/10/17 17:37:06;;;;;;;17.15;14.45;;;16.40;99.90;;;;;;6234924;22;20024;-83
2021/10/17 17:39:33;;;;;;;20.52;14.50;;;16.40;99.90;;;;;;6233697;23;20024;-83
2021/10/17 17:42:00;;;;;;;12.30;10.50;;;16.40;99.90;;;;;;6236994;22;20015;-82
2021/10/17 17:44:28;;;;;;;14.25;11.10;;;16.30;99.90;;;;;;6235415;22;20020;-84
2021/10/17 17:46:58;;;;;;;14.70;11.60;;;16.20;99.90;;;;;;6236605;22;20361;-81
2021/10/17 17:49:28;;;;;;;14.40;12.18;;;16.20;99.90;;;;;;6236024;22;20046;-83
2021/10/17 17:51:55;;;;;;;15.77;10.52;;;16.10;99.90;;;;;;6261730;22;20016;-86
2021/10/17 17:54:22;;;;;;;12.73;10.00;;;16.10;99.90;;;;;;6237478;22;20054;-86
2021/10/17 17:56:52;;;;;;;13.80;11.48;;;16.10;99.90;;;;;;6241215;22;20027;-85
2021/10/17 17:59:22;;;;;;;12.80;11.48;;;16.00;99.90;;;;;;6241751;22;20020;-87
2021/10/17 18:01:54;;;;;;;14.60;11.70;;;16.00;99.90;;;;;;6265852;22;20028;-86
2021/10/17 18:04:26;;;;;;;14.45;11.25;;;16.00;99.90;;;;;;6241852;22;20023;-87
2021/10/17 18:06:54;;;;;;;22.73;12.52;;;16.00;99.90;;;;;;6242011;22;20012;-85
2021/10/17 18:09:23;;;;;;;16.92;12.45;;;15.90;99.90;;;;;;6263399;22;20024;-82
2021/10/17 18:11:50;;;;;;;17.88;13.40;;;15.90;99.90;;;;;;6239524;23;20405;-86
2021/10/17 18:14:18;;;;;;;20.88;12.35;;;15.90;99.90;;;;;;6240086;22;20030;-86
2021/10/17 18:16:45;;;;;;;18.25;12.43;;;15.90;99.90;;;;;;6241345;22;20078;-85
2021/10/17 18:19:16;;;;;;;14.10;12.73;;;15.90;99.90;;;;;;6238592;22;20442;-83
2021/10/17 18:21:44;;;;;;;18.88;13.27;;;15.90;99.90;;;;;;6239492;22;20020;-86
2021/10/17 18:24:11;;;;;;;16.85;12.75;;;15.90;99.90;;;;;;6239243;22;20019;-83
2021/10/17 18:26:38;;;;;;;16.23;12.90;;;15.90;99.90;;;;;;6240162;22;20421;-84
2021/10/17 18:29:05;;;;;;;17.80;13.50;;;15.90;99.90;;;;;;6238952;22;20051;-83
2021/10/17 18:31:32;;;;;;;21.10;17.27;;;15.90;99.90;;;;;;6238813;22;20043;-84
2021/10/17 18:33:59;;;;;;;24.80;18.27;;;15.90;99.90;;;;;;6237957;23;20020;-85
2021/10/17 18:36:26;;;;;;;21.85;17.08;;;15.80;99.90;;;;;;6239775;22;20050;-84
2021/10/17 18:38:53;;;;;;;28.38;19.17;;;15.90;99.90;;;;;;6242322;22;20070;-85
2021/10/17 18:41:20;;;;;;;44.28;22.92;;;15.90;99.90;;;;;;6241141;22;20479;-86
2021/10/17 18:43:47;;;;;;;27.70;19.58;;;15.80;99.90;;;;;;6241866;22;20020;-84
2021/10/17 18:46:14;;;;;;;36.67;21.08;;;15.80;99.90;;;;;;6241240;22;20098;-85
2021/10/17 18:48:41;;;;;;;28.95;20.42;;;15.80;99.90;;;;;;6242551;22;20020;-84
2021/10/17 18:51:08;;;;;;;47.83;26.30;;;15.80;99.90;;;;;;6240947;22;20013;-84